sensor_id;sensor_type;location;lat;lon;timestamp;temperature;humidity
18807;DHT22;9531;52.030;4.380;2023-04-02T00:01:19;8.90;99.90
18807;DHT22;9531;52.030;4.380;2023-04-02T00:04:06;8.90;99.90
18807;DHT22;9531;52.030;4.380;2023-04-02T00:06:39;8.90;99.90
18807;DHT22;9531;52.030;4.380;2023-04-02T00:12:13;8.90;99.90
18807;DHT22;9531;52.030;4.380;2023-04-02T00:14:51;8.90;99.90
18807;DHT22;9531;52.030;4.380;2023-04-02T00:17:20;8.90;99.90
18807;DHT22;9531;52.030;4.380;2023-04-02T00:19:56;8.90;99.90
18807;DHT22;9531;52.030;4.380;2023-04-02T00:22:26;8.80;99.90
18807;DHT22;9531;52.030;4.380;2023-04-02T00:24:55;8.80;99.90
18807;DHT22;9531;52.030;4.380;2023-04-02T00:27:22;8.80;99.90
18807;DHT22;9531;52.030;4.380;2023-04-02T00:29:52;8.80;99.90
18807;DHT22;9531;52.030;4.380;2023-04-02T00:32:24;8.80;99.90
18807;DHT22;9531;52.030;4.380;2023-04-02T00:34:51;8.80;99.90
18807;DHT22;9531;52.030;4.380;2023-04-02T00:37:20;8.80;99.90
18807;DHT22;9531;52.030;4.380;2023-04-02T00:39:52;8.80;99.90
18807;DHT22;9531;52.030;4.380;2023-04-02T00:42:22;8.70;99.90
18807;DHT22;9531;52.030;4.380;2023-04-02T00:44:52;8.70;99.90
18807;DHT22;9531;52.030;4.380;2023-04-02T00:47:22;8.70;99.90
18807;DHT22;9531;52.030;4.380;2023-04-02T00:49:56;8.70;99.90
18807;DHT22;9531;52.030;4.380;2023-04-02T00:52:27;8.70;99.90
18807;DHT22;9531;52.030;4.380;2023-04-02T00:54:59;8.70;99.90
18807;DHT22;9531;52.030;4.380;2023-04-02T00:57:28;8.60;99.90
18807;DHT22;9531;52.030;4.380;2023-04-02T00:59:59;8.70;99.90
18807;DHT22;9531;52.030;4.380;2023-04-02T01:02:30;8.60;99.90
18807;DHT22;9531;52.030;4.380;2023-04-02T01:04:58;8.60;99.90
18807;DHT22;9531;52.030;4.380;2023-04-02T01:07:50;8.60;99.90
18807;DHT22;9531;52.030;4.380;2023-04-02T01:10:46;8.60;99.90
18807;DHT22;9531;52.030;4.380;2023-04-02T01:13:23;8.50;99.90
18807;DHT22;9531;52.030;4.380;2023-04-02T01:15:58;8.50;99.90
18807;DHT22;9531;52.030;4.380;2023-04-02T01:18:41;8.50;99.90
18807;DHT22;9531;52.030;4.380;2023-04-02T01:21:28;8.50;99.90
18807;DHT22;9531;52.030;4.380;2023-04-02T01:24:01;8.50;99.90
18807;DHT22;9531;52.030;4.380;2023-04-02T01:26:44;8.50;99.90
18807;DHT22;9531;52.030;4.380;2023-04-02T01:29:15;8.40;99.90
18807;DHT22;9531;52.030;4.380;2023-04-02T01:31:45;8.40;99.90
18807;DHT22;9531;52.030;4.380;2023-04-02T01:34:15;8.40;99.90
18807;DHT22;9531;52.030;4.380;2023-04-02T01:36:53;8.40;99.90
18807;DHT22;9531;52.030;4.380;2023-04-02T01:39:30;8.40;99.90
18807;DHT22;9531;52.030;4.380;2023-04-02T01:42:04;8.40;99.90
18807;DHT22;9531;52.030;4.380;2023-04-02T01:44:36;8.30;99.90
18807;DHT22;9531;52.030;4.380;2023-04-02T01:47:10;8.30;99.90
18807;DHT22;9531;52.030;4.380;2023-04-02T01:49:38;8.30;99.90
18807;DHT22;9531;52.030;4.380;2023-04-02T01:52:05;8.30;99.90
18807;DHT22;9531;52.030;4.380;2023-04-02T01:54:33;8.30;99.90
18807;DHT22;9531;52.030;4.380;2023-04-02T01:57:02;8.30;99.90
18807;DHT22;9531;52.030;4.380;2023-04-02T01:59:29;8.30;99.90
18807;DHT22;9531;52.030;4.380;2023-04-02T02:02:01;8.20;99.90
18807;DHT22;9531;52.030;4.380;2023-04-02T02:04:28;8.30;99.90
18807;DHT22;9531;52.030;4.380;2023-04-02T02:06:55;8.20;99.90
18807;DHT22;9531;52.030;4.380;2023-04-02T02:09:27;8.20;99.90
18807;DHT22;9531;52.030;4.380;2023-04-02T02:11:56;8.20;99.90
18807;DHT22;9531;52.030;4.380;2023-04-02T02:14:25;8.10;99.90
18807;DHT22;9531;52.030;4.380;2023-04-02T02:16:55;8.20;99.90
18807;DHT22;9531;52.030;4.380;2023-04-02T02:19:27;8.20;99.90
18807;DHT22;9531;52.030;4.380;2023-04-02T02:21:59;8.10;99.90
18807;DHT22;9531;52.030;4.380;2023-04-02T02:24:31;8.10;99.90
18807;DHT22;9531;52.030;4.380;2023-04-02T02:27:08;8.10;99.90
18807;DHT22;9531;52.030;4.380;2023-04-02T02:29:42;8.10;99.90
18807;DHT22;9531;52.030;4.380;2023-04-02T02:32:11;8.10;99.90
18807;DHT22;9531;52.030;4.380;2023-04-02T02:34:45;8.10;99.90
18807;DHT22;9531;52.030;4.380;2023-04-02T02:37:16;8.10;99.90
18807;DHT22;9531;52.030;4.380;2023-04-02T02:39:47;8.10;99.90
18807;DHT22;9531;52.030;4.380;2023-04-02T02:42:21;8.10;99.90
18807;DHT22;9531;52.030;4.380;2023-04-02T02:44:51;8.00;99.90
18807;DHT22;9531;52.030;4.380;2023-04-02T02:47:22;8.00;99.90
18807;DHT22;9531;52.030;4.380;2023-04-02T02:49:54;8.00;99.90
18807;DHT22;9531;52.030;4.380;2023-04-02T02:52:24;8.00;99.90
18807;DHT22;9531;52.030;4.380;2023-04-02T02:54:54;8.00;99.90
18807;DHT22;9531;52.030;4.380;2023-04-02T02:57:24;8.00;99.90
18807;DHT22;9531;52.030;4.380;2023-04-02T02:59:54;8.00;99.90
18807;DHT22;9531;52.030;4.380;2023-04-02T03:02:23;7.90;99.90
18807;DHT22;9531;52.030;4.380;2023-04-02T03:04:54;7.90;99.90
18807;DHT22;9531;52.030;4.380;2023-04-02T03:07:24;7.90;99.90
18807;DHT22;9531;52.030;4.380;2023-04-02T03:09:58;7.90;99.90
18807;DHT22;9531;52.030;4.380;2023-04-02T03:12:37;7.90;99.90
18807;DHT22;9531;52.030;4.380;2023-04-02T03:15:15;7.90;99.90
18807;DHT22;9531;52.030;4.380;2023-04-02T03:17:47;7.90;99.90
18807;DHT22;9531;52.030;4.380;2023-04-02T03:20:20;7.90;99.90
18807;DHT22;9531;52.030;4.380;2023-04-02T03:22:54;7.90;99.90
18807;DHT22;9531;52.030;4.380;2023-04-02T03:25:27;7.90;99.90
18807;DHT22;9531;52.030;4.380;2023-04-02T03:28:00;7.80;99.90
18807;DHT22;9531;52.030;4.380;2023-04-02T03:30:33;7.80;99.90
18807;DHT22;9531;52.030;4.380;2023-04-02T03:33:05;7.80;99.90
18807;DHT22;9531;52.030;4.380;2023-04-02T03:35:40;7.80;99.90
18807;DHT22;9531;52.030;4.380;2023-04-02T03:38:14;7.80;99.90
18807;DHT22;9531;52.030;4.380;2023-04-02T03:40:56;7.70;99.90
18807;DHT22;9531;52.030;4.380;2023-04-02T03:43:26;7.70;99.90
18807;DHT22;9531;52.030;4.380;2023-04-02T03:45:57;7.70;99.90
18807;DHT22;9531;52.030;4.380;2023-04-02T03:48:30;7.70;99.90
18807;DHT22;9531;52.030;4.380;2023-04-02T03:51:03;7.70;99.90
18807;DHT22;9531;52.030;4.380;2023-04-02T03:53:32;7.60;99.90
18807;DHT22;9531;52.030;4.380;2023-04-02T03:55:59;7.60;99.90
18807;DHT22;9531;52.030;4.380;2023-04-02T03:58:33;7.60;99.90
18807;DHT22;9531;52.030;4.380;2023-04-02T04:01:06;7.60;99.90
18807;DHT22;9531;52.030;4.380;2023-04-02T04:03:40;7.60;99.90
18807;DHT22;9531;52.030;4.380;2023-04-02T04:06:12;7.60;99.90
18807;DHT22;9531;52.030;4.380;2023-04-02T04:08:45;7.60;99.90
18807;DHT22;9531;52.030;4.380;2023-04-02T04:11:18;7.50;99.90
18807;DHT22;9531;52.030;4.380;2023-04-02T04:13:55;7.50;99.90
18807;DHT22;9531;52.030;4.380;2023-04-02T04:16:27;7.50;99.90
18807;DHT22;9531;52.030;4.380;2023-04-02T04:18:59;7.50;99.90
18807;DHT22;9531;52.030;4.380;2023-04-02T04:21:29;7.50;99.90
18807;DHT22;9531;52.030;4.380;2023-04-02T04:24:03;7.50;99.90
18807;DHT22;9531;52.030;4.380;2023-04-02T04:26:37;7.50;99.90
18807;DHT22;9531;52.030;4.380;2023-04-02T04:29:14;7.50;99.90
18807;DHT22;9531;52.030;4.380;2023-04-02T04:31:45;7.40;99.90
18807;DHT22;9531;52.030;4.380;2023-04-02T04:34:19;7.40;99.90
18807;DHT22;9531;52.030;4.380;2023-04-02T04:36:51;7.40;99.90
18807;DHT22;9531;52.030;4.380;2023-04-02T04:39:25;7.40;99.90
18807;DHT22;9531;52.030;4.380;2023-04-02T04:41:57;7.40;99.90
18807;DHT22;9531;52.030;4.380;2023-04-02T04:44:40;7.40;99.90
18807;DHT22;9531;52.030;4.380;2023-04-02T04:47:12;7.40;99.90
18807;DHT22;9531;52.030;4.380;2023-04-02T04:49:44;7.40;99.90
18807;DHT22;9531;52.030;4.380;2023-04-02T04:52:18;7.30;99.90
18807;DHT22;9531;52.030;4.380;2023-04-02T04:54:46;7.30;99.90
18807;DHT22;9531;52.030;4.380;2023-04-02T04:57:21;7.30;99.90
18807;DHT22;9531;52.030;4.380;2023-04-02T04:59:55;7.30;99.90
18807;DHT22;9531;52.030;4.380;2023-04-02T05:02:25;7.30;99.90
18807;DHT22;9531;52.030;4.380;2023-04-02T05:04:55;7.30;99.90
18807;DHT22;9531;52.030;4.380;2023-04-02T05:07:26;7.20;99.90
18807;DHT22;9531;52.030;4.380;2023-04-02T05:09:57;7.20;99.90
18807;DHT22;9531;52.030;4.380;2023-04-02T05:12:31;7.20;99.90
18807;DHT22;9531;52.030;4.380;2023-04-02T05:15:04;7.20;99.90
18807;DHT22;9531;52.030;4.380;2023-04-02T05:17:41;7.20;99.90
18807;DHT22;9531;52.030;4.380;2023-04-02T05:20:14;7.20;99.90
18807;DHT22;9531;52.030;4.380;2023-04-02T05:22:47;7.10;99.90
18807;DHT22;9531;52.030;4.380;2023-04-02T05:25:19;7.10;99.90
18807;DHT22;9531;52.030;4.380;2023-04-02T05:27:52;7.10;99.90
18807;DHT22;9531;52.030;4.380;2023-04-02T05:30:43;7.10;99.90
18807;DHT22;9531;52.030;4.380;2023-04-02T05:33:19;7.00;99.90
18807;DHT22;9531;52.030;4.380;2023-04-02T05:35:50;7.00;99.90
18807;DHT22;9531;52.030;4.380;2023-04-02T05:38:22;7.00;99.90
18807;DHT22;9531;52.030;4.380;2023-04-02T05:40:57;7.00;99.90
18807;DHT22;9531;52.030;4.380;2023-04-02T05:43:26;7.00;99.90
18807;DHT22;9531;52.030;4.380;2023-04-02T05:45:56;7.00;99.90
18807;DHT22;9531;52.030;4.380;2023-04-02T05:48:26;7.00;99.90
18807;DHT22;9531;52.030;4.380;2023-04-02T05:50:56;6.90;99.90
18807;DHT22;9531;52.030;4.380;2023-04-02T05:53:29;6.90;99.90
18807;DHT22;9531;52.030;4.380;2023-04-02T05:56:02;6.90;99.90
18807;DHT22;9531;52.030;4.380;2023-04-02T05:58:33;6.90;99.90
18807;DHT22;9531;52.030;4.380;2023-04-02T06:03:53;6.90;99.90
18807;DHT22;9531;52.030;4.380;2023-04-02T06:06:39;6.90;99.90
18807;DHT22;9531;52.030;4.380;2023-04-02T06:09:11;6.90;99.90
18807;DHT22;9531;52.030;4.380;2023-04-02T06:11:42;6.90;99.90
18807;DHT22;9531;52.030;4.380;2023-04-02T06:14:12;6.80;99.90
18807;DHT22;9531;52.030;4.380;2023-04-02T06:16:39;6.80;99.90
18807;DHT22;9531;52.030;4.380;2023-04-02T06:19:14;6.80;99.90
18807;DHT22;9531;52.030;4.380;2023-04-02T06:21:43;6.80;99.90
18807;DHT22;9531;52.030;4.380;2023-04-02T06:24:14;6.80;99.90
18807;DHT22;9531;52.030;4.380;2023-04-02T06:26:45;6.80;99.90
18807;DHT22;9531;52.030;4.380;2023-04-02T06:29:19;6.80;99.90
18807;DHT22;9531;52.030;4.380;2023-04-02T06:31:51;6.70;99.90
18807;DHT22;9531;52.030;4.380;2023-04-02T06:34:23;6.80;99.90
18807;DHT22;9531;52.030;4.380;2023-04-02T06:36:54;6.80;99.90
18807;DHT22;9531;52.030;4.380;2023-04-02T06:39:25;6.70;99.90
18807;DHT22;9531;52.030;4.380;2023-04-02T06:41:57;6.70;99.90
18807;DHT22;9531;52.030;4.380;2023-04-02T06:44:27;6.70;99.90
18807;DHT22;9531;52.030;4.380;2023-04-02T06:46:57;6.70;99.90
18807;DHT22;9531;52.030;4.380;2023-04-02T06:49:31;6.70;99.90
18807;DHT22;9531;52.030;4.380;2023-04-02T06:52:01;6.60;99.90
18807;DHT22;9531;52.030;4.380;2023-04-02T06:54:31;6.70;99.90
18807;DHT22;9531;52.030;4.380;2023-04-02T06:56:58;6.70;99.90
18807;DHT22;9531;52.030;4.380;2023-04-02T06:59:25;6.60;99.90
18807;DHT22;9531;52.030;4.380;2023-04-02T07:01:55;6.60;99.90
18807;DHT22;9531;52.030;4.380;2023-04-02T07:04:23;6.60;99.90
18807;DHT22;9531;52.030;4.380;2023-04-02T07:06:50;6.60;99.90
18807;DHT22;9531;52.030;4.380;2023-04-02T07:09:19;6.60;99.90
18807;DHT22;9531;52.030;4.380;2023-04-02T07:11:47;6.60;99.90
18807;DHT22;9531;52.030;4.380;2023-04-02T07:14:14;6.60;99.90
18807;DHT22;9531;52.030;4.380;2023-04-02T07:16:42;6.60;99.90
18807;DHT22;9531;52.030;4.380;2023-04-02T07:19:16;6.60;99.90
18807;DHT22;9531;52.030;4.380;2023-04-02T07:21:44;6.60;99.90
18807;DHT22;9531;52.030;4.380;2023-04-02T07:24:13;6.60;99.90
18807;DHT22;9531;52.030;4.380;2023-04-02T07:26:40;6.60;99.90
18807;DHT22;9531;52.030;4.380;2023-04-02T07:29:13;6.60;99.90
18807;DHT22;9531;52.030;4.380;2023-04-02T07:31:40;6.60;99.90
18807;DHT22;9531;52.030;4.380;2023-04-02T07:34:10;6.60;99.90
18807;DHT22;9531;52.030;4.380;2023-04-02T07:36:36;6.60;99.90
18807;DHT22;9531;52.030;4.380;2023-04-02T07:39:03;6.60;99.90
18807;DHT22;9531;52.030;4.380;2023-04-02T07:41:31;6.60;99.90
18807;DHT22;9531;52.030;4.380;2023-04-02T07:43:58;6.60;99.90
18807;DHT22;9531;52.030;4.380;2023-04-02T07:46:27;6.60;99.90
18807;DHT22;9531;52.030;4.380;2023-04-02T07:48:55;6.70;99.90
18807;DHT22;9531;52.030;4.380;2023-04-02T07:51:24;6.70;99.90
18807;DHT22;9531;52.030;4.380;2023-04-02T07:53:52;6.70;99.90
18807;DHT22;9531;52.030;4.380;2023-04-02T07:56:21;6.70;99.90
18807;DHT22;9531;52.030;4.380;2023-04-02T07:58:48;6.70;99.90
18807;DHT22;9531;52.030;4.380;2023-04-02T08:01:17;6.80;99.90
18807;DHT22;9531;52.030;4.380;2023-04-02T08:03:46;6.80;99.90
18807;DHT22;9531;52.030;4.380;2023-04-02T08:06:14;6.80;99.90
18807;DHT22;9531;52.030;4.380;2023-04-02T08:08:41;6.80;99.90
18807;DHT22;9531;52.030;4.380;2023-04-02T08:11:08;6.80;99.90
18807;DHT22;9531;52.030;4.380;2023-04-02T08:13:35;6.90;99.90
18807;DHT22;9531;52.030;4.380;2023-04-02T08:16:03;6.90;99.90
18807;DHT22;9531;52.030;4.380;2023-04-02T08:18:30;6.90;99.90
18807;DHT22;9531;52.030;4.380;2023-04-02T08:20:59;6.90;99.90
18807;DHT22;9531;52.030;4.380;2023-04-02T08:23:26;6.90;99.90
18807;DHT22;9531;52.030;4.380;2023-04-02T08:25:53;6.90;99.90
18807;DHT22;9531;52.030;4.380;2023-04-02T08:28:21;6.90;99.90
18807;DHT22;9531;52.030;4.380;2023-04-02T08:30:49;7.00;99.90
18807;DHT22;9531;52.030;4.380;2023-04-02T08:33:17;7.00;99.90
18807;DHT22;9531;52.030;4.380;2023-04-02T08:35:45;7.00;99.90
18807;DHT22;9531;52.030;4.380;2023-04-02T08:38:14;7.00;99.90
18807;DHT22;9531;52.030;4.380;2023-04-02T08:40:44;7.10;99.90
18807;DHT22;9531;52.030;4.380;2023-04-02T08:46:14;7.10;99.90
18807;DHT22;9531;52.030;4.380;2023-04-02T08:48:48;7.20;99.90
18807;DHT22;9531;52.030;4.380;2023-04-02T08:51:21;7.20;99.90
18807;DHT22;9531;52.030;4.380;2023-04-02T08:53:53;7.30;99.90
18807;DHT22;9531;52.030;4.380;2023-04-02T08:56:28;7.30;99.90
18807;DHT22;9531;52.030;4.380;2023-04-02T08:59:01;7.40;99.90
18807;DHT22;9531;52.030;4.380;2023-04-02T09:01:44;7.50;99.90
18807;DHT22;9531;52.030;4.380;2023-04-02T09:04:16;7.60;99.90
18807;DHT22;9531;52.030;4.380;2023-04-02T09:06:44;7.70;99.90
18807;DHT22;9531;52.030;4.380;2023-04-02T09:09:13;7.80;99.90
18807;DHT22;9531;52.030;4.380;2023-04-02T09:11:45;7.90;99.90
18807;DHT22;9531;52.030;4.380;2023-04-02T09:14:19;7.90;99.90
18807;DHT22;9531;52.030;4.380;2023-04-02T09:16:50;8.00;99.90
18807;DHT22;9531;52.030;4.380;2023-04-02T09:19:22;8.00;99.90
18807;DHT22;9531;52.030;4.380;2023-04-02T09:22:05;8.00;99.90
18807;DHT22;9531;52.030;4.380;2023-04-02T09:24:44;8.10;99.90
18807;DHT22;9531;52.030;4.380;2023-04-02T09:27:16;8.10;99.90
18807;DHT22;9531;52.030;4.380;2023-04-02T09:29:54;8.30;99.90
18807;DHT22;9531;52.030;4.380;2023-04-02T09:32:43;8.70;99.90
18807;DHT22;9531;52.030;4.380;2023-04-02T09:35:13;9.30;99.90
18807;DHT22;9531;52.030;4.380;2023-04-02T09:37:41;10.00;99.90
18807;DHT22;9531;52.030;4.380;2023-04-02T09:40:23;10.70;99.90
18807;DHT22;9531;52.030;4.380;2023-04-02T09:43:02;11.60;99.90
18807;DHT22;9531;52.030;4.380;2023-04-02T09:45:29;12.30;99.90
18807;DHT22;9531;52.030;4.380;2023-04-02T09:47:56;12.80;99.90
18807;DHT22;9531;52.030;4.380;2023-04-02T09:50:29;13.20;99.90
18807;DHT22;9531;52.030;4.380;2023-04-02T09:52:56;13.60;99.90
18807;DHT22;9531;52.030;4.380;2023-04-02T09:55:27;14.10;99.90
18807;DHT22;9531;52.030;4.380;2023-04-02T09:58:12;14.50;99.90
18807;DHT22;9531;52.030;4.380;2023-04-02T10:00:49;14.90;99.90
18807;DHT22;9531;52.030;4.380;2023-04-02T10:03:23;15.30;99.90
18807;DHT22;9531;52.030;4.380;2023-04-02T10:06:05;15.50;99.90
18807;DHT22;9531;52.030;4.380;2023-04-02T10:08:35;15.70;99.90
18807;DHT22;9531;52.030;4.380;2023-04-02T10:11:08;15.90;99.90
18807;DHT22;9531;52.030;4.380;2023-04-02T10:13:42;16.10;99.90
18807;DHT22;9531;52.030;4.380;2023-04-02T10:16:16;16.30;99.90
18807;DHT22;9531;52.030;4.380;2023-04-02T10:18:47;16.40;99.90
18807;DHT22;9531;52.030;4.380;2023-04-02T10:21:18;16.60;99.90
18807;DHT22;9531;52.030;4.380;2023-04-02T10:23:47;16.70;99.90
18807;DHT22;9531;52.030;4.380;2023-04-02T10:26:37;16.70;99.90
18807;DHT22;9531;52.030;4.380;2023-04-02T10:29:19;16.70;99.90
18807;DHT22;9531;52.030;4.380;2023-04-02T10:31:55;16.80;99.90
18807;DHT22;9531;52.030;4.380;2023-04-02T10:34:33;17.00;99.90
18807;DHT22;9531;52.030;4.380;2023-04-02T10:39:54;17.50;99.90
18807;DHT22;9531;52.030;4.380;2023-04-02T10:42:29;17.80;99.90
18807;DHT22;9531;52.030;4.380;2023-04-02T10:45:01;18.00;99.90
18807;DHT22;9531;52.030;4.380;2023-04-02T10:47:38;18.20;99.90
18807;DHT22;9531;52.030;4.380;2023-04-02T10:50:26;18.50;99.90
18807;DHT22;9531;52.030;4.380;2023-04-02T10:53:04;18.60;99.90
18807;DHT22;9531;52.030;4.380;2023-04-02T10:55:34;18.80;99.90
18807;DHT22;9531;52.030;4.380;2023-04-02T10:58:15;19.00;99.90
18807;DHT22;9531;52.030;4.380;2023-04-02T11:00:45;19.10;99.90
18807;DHT22;9531;52.030;4.380;2023-04-02T11:03:27;19.30;99.90
18807;DHT22;9531;52.030;4.380;2023-04-02T11:05:57;19.40;99.90
18807;DHT22;9531;52.030;4.380;2023-04-02T11:08:30;19.60;99.90
18807;DHT22;9531;52.030;4.380;2023-04-02T11:11:08;19.70;99.90
18807;DHT22;9531;52.030;4.380;2023-04-02T11:13:46;19.90;99.90
18807;DHT22;9531;52.030;4.380;2023-04-02T11:16:16;20.00;99.90
18807;DHT22;9531;52.030;4.380;2023-04-02T11:19:19;20.20;99.90
18807;DHT22;9531;52.030;4.380;2023-04-02T11:21:47;20.30;99.90
18807;DHT22;9531;52.030;4.380;2023-04-02T11:24:30;20.50;99.90
18807;DHT22;9531;52.030;4.380;2023-04-02T11:27:16;20.70;99.90
18807;DHT22;9531;52.030;4.380;2023-04-02T11:29:48;20.90;99.90
18807;DHT22;9531;52.030;4.380;2023-04-02T11:32:34;21.00;99.90
18807;DHT22;9531;52.030;4.380;2023-04-02T11:35:26;21.20;99.90
18807;DHT22;9531;52.030;4.380;2023-04-02T11:41:06;21.30;99.90
18807;DHT22;9531;52.030;4.380;2023-04-02T11:43:50;21.40;99.90
18807;DHT22;9531;52.030;4.380;2023-04-02T11:46:41;21.50;99.90
18807;DHT22;9531;52.030;4.380;2023-04-02T11:49:32;21.60;99.90
18807;DHT22;9531;52.030;4.380;2023-04-02T11:51:59;21.70;99.90
18807;DHT22;9531;52.030;4.380;2023-04-02T11:54:30;21.80;99.90
18807;DHT22;9531;52.030;4.380;2023-04-02T11:57:09;21.90;99.90
18807;DHT22;9531;52.030;4.380;2023-04-02T11:59:49;21.90;99.90
18807;DHT22;9531;52.030;4.380;2023-04-02T12:02:27;22.00;99.90
18807;DHT22;9531;52.030;4.380;2023-04-02T12:05:15;22.10;99.90
18807;DHT22;9531;52.030;4.380;2023-04-02T12:07:56;22.10;99.90
18807;DHT22;9531;52.030;4.380;2023-04-02T12:10:31;22.10;99.90
18807;DHT22;9531;52.030;4.380;2023-04-02T12:12:59;22.20;99.90
18807;DHT22;9531;52.030;4.380;2023-04-02T12:15:44;22.30;99.90
18807;DHT22;9531;52.030;4.380;2023-04-02T12:18:20;22.40;99.90
18807;DHT22;9531;52.030;4.380;2023-04-02T12:20:49;22.40;99.90
18807;DHT22;9531;52.030;4.380;2023-04-02T12:23:19;22.40;99.90
18807;DHT22;9531;52.030;4.380;2023-04-02T12:25:54;22.50;99.90
18807;DHT22;9531;52.030;4.380;2023-04-02T12:28:23;22.50;99.90
18807;DHT22;9531;52.030;4.380;2023-04-02T12:31:01;22.60;99.90
18807;DHT22;9531;52.030;4.380;2023-04-02T12:33:32;22.60;99.90
18807;DHT22;9531;52.030;4.380;2023-04-02T12:36:03;22.60;99.90
18807;DHT22;9531;52.030;4.380;2023-04-02T12:38:33;22.70;99.90
18807;DHT22;9531;52.030;4.380;2023-04-02T12:41:05;22.70;99.90
18807;DHT22;9531;52.030;4.380;2023-04-02T12:43:33;22.80;99.90
18807;DHT22;9531;52.030;4.380;2023-04-02T12:46:04;22.90;99.90
18807;DHT22;9531;52.030;4.380;2023-04-02T12:48:33;22.90;99.90
18807;DHT22;9531;52.030;4.380;2023-04-02T12:51:01;22.90;99.90
18807;DHT22;9531;52.030;4.380;2023-04-02T12:53:33;23.00;99.90
18807;DHT22;9531;52.030;4.380;2023-04-02T12:56:01;23.10;99.90
18807;DHT22;9531;52.030;4.380;2023-04-02T12:58:30;23.10;99.90
18807;DHT22;9531;52.030;4.380;2023-04-02T13:01:14;23.10;99.90
18807;DHT22;9531;52.030;4.380;2023-04-02T13:03:58;23.20;99.90
18807;DHT22;9531;52.030;4.380;2023-04-02T13:06:32;23.20;99.90
18807;DHT22;9531;52.030;4.380;2023-04-02T13:09:01;23.30;99.90
18807;DHT22;9531;52.030;4.380;2023-04-02T13:11:37;23.30;99.90
18807;DHT22;9531;52.030;4.380;2023-04-02T13:14:06;23.30;99.90
18807;DHT22;9531;52.030;4.380;2023-04-02T13:16:36;23.40;99.90
18807;DHT22;9531;52.030;4.380;2023-04-02T13:19:24;23.40;99.90
18807;DHT22;9531;52.030;4.380;2023-04-02T13:21:52;23.40;99.90
18807;DHT22;9531;52.030;4.380;2023-04-02T13:24:23;23.30;99.90
18807;DHT22;9531;52.030;4.380;2023-04-02T13:26:53;23.30;99.90
18807;DHT22;9531;52.030;4.380;2023-04-02T13:29:24;23.40;99.90
18807;DHT22;9531;52.030;4.380;2023-04-02T13:31:53;23.40;99.90
18807;DHT22;9531;52.030;4.380;2023-04-02T13:34:22;23.40;99.90
18807;DHT22;9531;52.030;4.380;2023-04-02T13:36:49;23.40;99.90
18807;DHT22;9531;52.030;4.380;2023-04-02T13:39:16;23.40;99.90
18807;DHT22;9531;52.030;4.380;2023-04-02T13:41:45;23.40;99.90
18807;DHT22;9531;52.030;4.380;2023-04-02T13:44:22;23.40;99.90
18807;DHT22;9531;52.030;4.380;2023-04-02T13:46:49;23.40;99.90
18807;DHT22;9531;52.030;4.380;2023-04-02T13:49:17;23.40;99.90
18807;DHT22;9531;52.030;4.380;2023-04-02T13:51:46;23.40;99.90
18807;DHT22;9531;52.030;4.380;2023-04-02T13:54:18;23.30;99.90
18807;DHT22;9531;52.030;4.380;2023-04-02T13:56:46;23.30;99.90
18807;DHT22;9531;52.030;4.380;2023-04-02T13:59:13;23.30;99.90
18807;DHT22;9531;52.030;4.380;2023-04-02T14:01:40;23.30;99.90
18807;DHT22;9531;52.030;4.380;2023-04-02T14:04:13;23.30;99.90
18807;DHT22;9531;52.030;4.380;2023-04-02T14:07:26;23.30;99.90
18807;DHT22;9531;52.030;4.380;2023-04-02T14:10:10;23.30;99.90
18807;DHT22;9531;52.030;4.380;2023-04-02T14:12:55;23.30;99.90
18807;DHT22;9531;52.030;4.380;2023-04-02T14:15:38;23.30;99.90
18807;DHT22;9531;52.030;4.380;2023-04-02T14:18:21;23.30;99.90
18807;DHT22;9531;52.030;4.380;2023-04-02T14:20:59;23.30;99.90
18807;DHT22;9531;52.030;4.380;2023-04-02T14:23:40;23.30;99.90
18807;DHT22;9531;52.030;4.380;2023-04-02T14:26:14;23.30;99.90
18807;DHT22;9531;52.030;4.380;2023-04-02T14:28:50;23.30;99.90
18807;DHT22;9531;52.030;4.380;2023-04-02T14:31:27;23.30;99.90
18807;DHT22;9531;52.030;4.380;2023-04-02T14:34:02;23.30;99.90
18807;DHT22;9531;52.030;4.380;2023-04-02T14:36:39;23.30;99.90
18807;DHT22;9531;52.030;4.380;2023-04-02T14:39:18;23.20;99.90
18807;DHT22;9531;52.030;4.380;2023-04-02T14:41:51;23.20;99.90
18807;DHT22;9531;52.030;4.380;2023-04-02T14:44:24;23.20;99.90
18807;DHT22;9531;52.030;4.380;2023-04-02T14:46:58;23.20;99.90
18807;DHT22;9531;52.030;4.380;2023-04-02T14:49:30;23.10;99.90
18807;DHT22;9531;52.030;4.380;2023-04-02T14:52:03;23.10;99.90
18807;DHT22;9531;52.030;4.380;2023-04-02T14:54:34;23.10;99.90
18807;DHT22;9531;52.030;4.380;2023-04-02T14:57:05;23.00;99.90
18807;DHT22;9531;52.030;4.380;2023-04-02T14:59:40;23.00;99.90
18807;DHT22;9531;52.030;4.380;2023-04-02T15:02:17;22.90;99.90
18807;DHT22;9531;52.030;4.380;2023-04-02T15:04:55;22.90;99.90
18807;DHT22;9531;52.030;4.380;2023-04-02T15:07:27;22.80;99.90
18807;DHT22;9531;52.030;4.380;2023-04-02T15:10:06;22.80;99.90
18807;DHT22;9531;52.030;4.380;2023-04-02T15:12:35;22.70;99.90
18807;DHT22;9531;52.030;4.380;2023-04-02T15:15:12;22.70;99.90
18807;DHT22;9531;52.030;4.380;2023-04-02T15:17:43;22.60;99.90
18807;DHT22;9531;52.030;4.380;2023-04-02T15:20:13;22.60;99.90
18807;DHT22;9531;52.030;4.380;2023-04-02T15:22:44;22.50;99.90
18807;DHT22;9531;52.030;4.380;2023-04-02T15:25:25;22.50;99.90
18807;DHT22;9531;52.030;4.380;2023-04-02T15:28:06;22.40;99.90
18807;DHT22;9531;52.030;4.380;2023-04-02T15:30:40;22.20;99.90
18807;DHT22;9531;52.030;4.380;2023-04-02T15:33:28;22.10;99.90
18807;DHT22;9531;52.030;4.380;2023-04-02T15:36:17;22.00;99.90
18807;DHT22;9531;52.030;4.380;2023-04-02T15:38:50;21.80;99.90
18807;DHT22;9531;52.030;4.380;2023-04-02T15:41:24;21.60;99.90
18807;DHT22;9531;52.030;4.380;2023-04-02T15:43:56;21.50;99.90
18807;DHT22;9531;52.030;4.380;2023-04-02T15:46:32;21.30;99.90
18807;DHT22;9531;52.030;4.380;2023-04-02T15:49:18;21.10;99.90
18807;DHT22;9531;52.030;4.380;2023-04-02T15:51:58;20.90;99.90
18807;DHT22;9531;52.030;4.380;2023-04-02T15:54:49;20.70;99.90
18807;DHT22;9531;52.030;4.380;2023-04-02T15:57:28;20.50;99.90
18807;DHT22;9531;52.030;4.380;2023-04-02T16:00:22;20.20;99.90
18807;DHT22;9531;52.030;4.380;2023-04-02T16:03:04;20.00;99.90
18807;DHT22;9531;52.030;4.380;2023-04-02T16:05:43;19.80;99.90
18807;DHT22;9531;52.030;4.380;2023-04-02T16:08:39;19.50;99.90
18807;DHT22;9531;52.030;4.380;2023-04-02T16:11:13;19.30;99.90
18807;DHT22;9531;52.030;4.380;2023-04-02T16:13:42;19.10;99.90
18807;DHT22;9531;52.030;4.380;2023-04-02T16:16:13;18.90;99.90
18807;DHT22;9531;52.030;4.380;2023-04-02T16:18:52;18.70;99.90
18807;DHT22;9531;52.030;4.380;2023-04-02T16:21:23;18.50;99.90
18807;DHT22;9531;52.030;4.380;2023-04-02T16:23:50;18.20;99.90
18807;DHT22;9531;52.030;4.380;2023-04-02T16:26:29;18.10;99.90
18807;DHT22;9531;52.030;4.380;2023-04-02T16:29:12;18.00;99.90
18807;DHT22;9531;52.030;4.380;2023-04-02T16:31:45;17.70;99.90
18807;DHT22;9531;52.030;4.380;2023-04-02T16:34:17;17.50;99.90
18807;DHT22;9531;52.030;4.380;2023-04-02T16:36:53;17.40;99.90
18807;DHT22;9531;52.030;4.380;2023-04-02T16:39:32;17.20;99.90
18807;DHT22;9531;52.030;4.380;2023-04-02T16:42:08;17.10;99.90
18807;DHT22;9531;52.030;4.380;2023-04-02T16:44:50;16.90;99.90
18807;DHT22;9531;52.030;4.380;2023-04-02T16:47:42;16.80;99.90
18807;DHT22;9531;52.030;4.380;2023-04-02T16:50:18;16.60;99.90